sensor_id;sensor_type;location;lat;lon;timestamp;pressure;altitude;pressure_sealevel;temperature;humidity
17785;BME280;9016;53.582;10.062;2023-06-04T00:00:03;102172.72;;;15.17;49.47
17785;BME280;9016;53.582;10.062;2023-06-04T00:02:32;102175.66;;;15.13;49.48
17785;BME280;9016;53.582;10.062;2023-06-04T00:05:00;102167.28;;;15.03;49.66
17785;BME280;9016;53.582;10.062;2023-06-04T00:07:28;102172.38;;;15.08;50.26
17785;BME280;9016;53.582;10.062;2023-06-04T00:09:57;102160.84;;;15.06;50.06
17785;BME280;9016;53.582;10.062;2023-06-04T00:12:25;102164.75;;;15.00;50.53
17785;BME280;9016;53.582;10.062;2023-06-04T00:14:54;102167.72;;;14.96;50.12
17785;BME280;9016;53.582;10.062;2023-06-04T00:17:23;102160.25;;;15.01;50.13
17785;BME280;9016;53.582;10.062;2023-06-04T00:19:51;102162.84;;;14.86;50.63
17785;BME280;9016;53.582;10.062;2023-06-04T00:22:19;102161.38;;;14.81;50.49
17785;BME280;9016;53.582;10.062;2023-06-04T00:24:47;102164.13;;;14.79;50.75
17785;BME280;9016;53.582;10.062;2023-06-04T00:27:15;102158.69;;;14.81;50.60
17785;BME280;9016;53.582;10.062;2023-06-04T00:29:43;102165.88;;;14.80;50.84
17785;BME280;9016;53.582;10.062;2023-06-04T00:32:11;102170.09;;;14.69;51.94
17785;BME280;9016;53.582;10.062;2023-06-04T00:34:41;102163.00;;;14.68;51.91
17785;BME280;9016;53.582;10.062;2023-06-04T00:37:09;102160.63;;;14.62;51.53
17785;BME280;9016;53.582;10.062;2023-06-04T00:39:37;102161.22;;;14.51;52.17
17785;BME280;9016;53.582;10.062;2023-06-04T00:42:05;102164.06;;;14.48;52.51
17785;BME280;9016;53.582;10.062;2023-06-04T00:44:34;102158.56;;;14.51;52.43
17785;BME280;9016;53.582;10.062;2023-06-04T00:47:03;102162.06;;;14.52;52.55
17785;BME280;9016;53.582;10.062;2023-06-04T00:49:31;102164.16;;;14.47;52.64
17785;BME280;9016;53.582;10.062;2023-06-04T00:52:01;102159.81;;;14.44;53.25
17785;BME280;9016;53.582;10.062;2023-06-04T00:54:30;102161.88;;;14.39;53.46
17785;BME280;9016;53.582;10.062;2023-06-04T00:56:59;102162.38;;;14.30;53.39
17785;BME280;9016;53.582;10.062;2023-06-04T00:59:28;102170.59;;;14.27;53.87
17785;BME280;9016;53.582;10.062;2023-06-04T01:02:01;102158.03;;;14.28;53.69
17785;BME280;9016;53.582;10.062;2023-06-04T01:04:32;102158.91;;;14.28;53.70
17785;BME280;9016;53.582;10.062;2023-06-04T01:07:04;102157.28;;;14.24;53.64
17785;BME280;9016;53.582;10.062;2023-06-04T01:09:35;102160.94;;;14.23;53.53
17785;BME280;9016;53.582;10.062;2023-06-04T01:12:04;102159.03;;;14.25;53.17
17785;BME280;9016;53.582;10.062;2023-06-04T01:14:33;102151.72;;;14.29;52.95
17785;BME280;9016;53.582;10.062;2023-06-04T01:17:05;102157.22;;;14.26;53.29
17785;BME280;9016;53.582;10.062;2023-06-04T01:20:13;102157.28;;;14.24;54.52
17785;BME280;9016;53.582;10.062;2023-06-04T01:22:50;102154.16;;;14.16;54.23
17785;BME280;9016;53.582;10.062;2023-06-04T01:25:25;102154.16;;;14.16;54.10
17785;BME280;9016;53.582;10.062;2023-06-04T01:27:56;102152.19;;;14.20;54.12
17785;BME280;9016;53.582;10.062;2023-06-04T01:30:28;102154.69;;;14.23;53.70
17785;BME280;9016;53.582;10.062;2023-06-04T01:32:57;102158.34;;;14.22;54.08
17785;BME280;9016;53.582;10.062;2023-06-04T01:35:27;102149.81;;;14.14;54.87
17785;BME280;9016;53.582;10.062;2023-06-04T01:37:59;102151.00;;;14.08;55.29
17785;BME280;9016;53.582;10.062;2023-06-04T01:40:27;102139.88;;;13.99;54.89
17785;BME280;9016;53.582;10.062;2023-06-04T01:42:55;102163.78;;;14.03;55.19
17785;BME280;9016;53.582;10.062;2023-06-04T01:45:27;102152.75;;;14.09;55.01
17785;BME280;9016;53.582;10.062;2023-06-04T01:47:56;102157.94;;;14.12;54.94
17785;BME280;9016;53.582;10.062;2023-06-04T01:50:24;102154.56;;;14.09;54.82
17785;BME280;9016;53.582;10.062;2023-06-04T01:52:53;102152.91;;;14.06;54.46
17785;BME280;9016;53.582;10.062;2023-06-04T01:55:23;102156.28;;;14.10;54.42
17785;BME280;9016;53.582;10.062;2023-06-04T01:57:53;102157.63;;;14.01;54.89
17785;BME280;9016;53.582;10.062;2023-06-04T02:00:20;102148.03;;;13.97;55.13
17785;BME280;9016;53.582;10.062;2023-06-04T02:02:49;102151.78;;;13.93;55.23
17785;BME280;9016;53.582;10.062;2023-06-04T02:05:17;102145.91;;;13.86;55.75
17785;BME280;9016;53.582;10.062;2023-06-04T02:07:46;102156.84;;;13.82;55.83
17785;BME280;9016;53.582;10.062;2023-06-04T02:10:19;102149.28;;;13.73;56.26
17785;BME280;9016;53.582;10.062;2023-06-04T02:12:56;102149.66;;;13.65;57.25
17785;BME280;9016;53.582;10.062;2023-06-04T02:15:25;102149.81;;;13.62;56.49
17785;BME280;9016;53.582;10.062;2023-06-04T02:17:56;102146.44;;;13.59;56.77
17785;BME280;9016;53.582;10.062;2023-06-04T02:20:26;102149.13;;;13.59;56.70
17785;BME280;9016;53.582;10.062;2023-06-04T02:22:55;102148.47;;;13.54;57.25
17785;BME280;9016;53.582;10.062;2023-06-04T02:25:23;102154.38;;;13.60;56.56
17785;BME280;9016;53.582;10.062;2023-06-04T02:27:51;102153.69;;;13.57;57.06
17785;BME280;9016;53.582;10.062;2023-06-04T02:30:21;102153.81;;;13.54;56.30
17785;BME280;9016;53.582;10.062;2023-06-04T02:32:50;102160.84;;;13.56;55.95
17785;BME280;9016;53.582;10.062;2023-06-04T02:35:19;102152.97;;;13.53;55.81
17785;BME280;9016;53.582;10.062;2023-06-04T02:37:48;102147.38;;;13.58;55.52
17785;BME280;9016;53.582;10.062;2023-06-04T02:40:16;102152.31;;;13.48;55.99
17785;BME280;9016;53.582;10.062;2023-06-04T02:42:44;102144.78;;;13.56;55.38
17785;BME280;9016;53.582;10.062;2023-06-04T02:45:12;102147.38;;;13.58;55.19
17785;BME280;9016;53.582;10.062;2023-06-04T02:47:42;102147.03;;;13.47;55.87
17785;BME280;9016;53.582;10.062;2023-06-04T02:50:11;102148.88;;;13.46;56.00
17785;BME280;9016;53.582;10.062;2023-06-04T02:52:39;102149.16;;;13.40;56.11
17785;BME280;9016;53.582;10.062;2023-06-04T02:55:10;102149.97;;;13.42;56.07
17785;BME280;9016;53.582;10.062;2023-06-04T02:57:40;102150.16;;;13.38;56.38
17785;BME280;9016;53.582;10.062;2023-06-04T03:00:11;102151.84;;;13.40;56.21
17785;BME280;9016;53.582;10.062;2023-06-04T03:02:43;102152.31;;;13.31;56.91
17785;BME280;9016;53.582;10.062;2023-06-04T03:05:13;102149.53;;;13.33;56.70
17785;BME280;9016;53.582;10.062;2023-06-04T03:07:43;102148.59;;;13.34;56.86
17785;BME280;9016;53.582;10.062;2023-06-04T03:10:13;102145.69;;;13.38;56.94
17785;BME280;9016;53.582;10.062;2023-06-04T03:12:41;102147.66;;;13.35;56.98
17785;BME280;9016;53.582;10.062;2023-06-04T03:15:09;102146.88;;;13.33;56.97
17785;BME280;9016;53.582;10.062;2023-06-04T03:17:38;102156.06;;;13.27;57.27
17785;BME280;9016;53.582;10.062;2023-06-04T03:20:08;102141.09;;;13.23;57.25
17785;BME280;9016;53.582;10.062;2023-06-04T03:22:36;102143.94;;;13.20;57.51
17785;BME280;9016;53.582;10.062;2023-06-04T03:25:05;102143.28;;;12.97;57.99
17785;BME280;9016;53.582;10.062;2023-06-04T03:27:34;102140.44;;;13.00;58.06
17785;BME280;9016;53.582;10.062;2023-06-04T03:30:03;102140.03;;;13.09;57.74
17785;BME280;9016;53.582;10.062;2023-06-04T03:32:31;102143.94;;;13.20;57.43
17785;BME280;9016;53.582;10.062;2023-06-04T03:35:00;102143.03;;;13.20;57.49
17785;BME280;9016;53.582;10.062;2023-06-04T03:37:29;102139.41;;;13.21;57.67
17785;BME280;9016;53.582;10.062;2023-06-04T03:39:59;102143.25;;;13.15;57.95
17785;BME280;9016;53.582;10.062;2023-06-04T03:42:29;102141.47;;;13.16;57.88
17785;BME280;9016;53.582;10.062;2023-06-04T03:44:57;102151.16;;;13.18;57.66
17785;BME280;9016;53.582;10.062;2023-06-04T03:47:26;102151.88;;;13.22;57.99
17785;BME280;9016;53.582;10.062;2023-06-04T03:49:54;102140.09;;;13.26;57.20
17785;BME280;9016;53.582;10.062;2023-06-04T03:52:22;102146.28;;;13.26;57.57
17785;BME280;9016;53.582;10.062;2023-06-04T03:54:52;102143.84;;;13.22;57.83
17785;BME280;9016;53.582;10.062;2023-06-04T03:57:20;102143.75;;;13.23;57.59
17785;BME280;9016;53.582;10.062;2023-06-04T03:59:48;102142.75;;;13.26;57.60
17785;BME280;9016;53.582;10.062;2023-06-04T04:02:16;102141.72;;;13.28;57.50
17785;BME280;9016;53.582;10.062;2023-06-04T04:04:44;102143.56;;;13.28;57.79
17785;BME280;9016;53.582;10.062;2023-06-04T04:07:13;102133.94;;;13.24;58.10
17785;BME280;9016;53.582;10.062;2023-06-04T04:09:42;102143.59;;;13.26;58.28
17785;BME280;9016;53.582;10.062;2023-06-04T04:12:11;102145.66;;;13.21;58.42
17785;BME280;9016;53.582;10.062;2023-06-04T04:14:39;102148.66;;;13.32;57.88
17785;BME280;9016;53.582;10.062;2023-06-04T04:17:07;102159.09;;;13.38;58.56
17785;BME280;9016;53.582;10.062;2023-06-04T04:19:35;102164.53;;;13.37;58.20
17785;BME280;9016;53.582;10.062;2023-06-04T04:22:03;102160.63;;;13.25;58.81
17785;BME280;9016;53.582;10.062;2023-06-04T04:24:32;102158.94;;;13.23;58.50
17785;BME280;9016;53.582;10.062;2023-06-04T04:27:04;102154.72;;;13.36;57.73
17785;BME280;9016;53.582;10.062;2023-06-04T04:29:33;102158.38;;;13.35;57.08
17785;BME280;9016;53.582;10.062;2023-06-04T04:32:02;102166.16;;;13.39;57.26
17785;BME280;9016;53.582;10.062;2023-06-04T04:34:38;102159.78;;;13.42;57.02
17785;BME280;9016;53.582;10.062;2023-06-04T04:37:06;102159.78;;;13.42;56.87
17785;BME280;9016;53.582;10.062;2023-06-04T04:39:36;102170.22;;;13.48;56.90
17785;BME280;9016;53.582;10.062;2023-06-04T04:42:04;102169.75;;;13.57;56.79
17785;BME280;9016;53.582;10.062;2023-06-04T04:44:33;102164.41;;;13.57;57.10
17785;BME280;9016;53.582;10.062;2023-06-04T04:47:01;102165.81;;;13.64;56.62
17785;BME280;9016;53.582;10.062;2023-06-04T04:49:29;102162.75;;;13.71;56.73
17785;BME280;9016;53.582;10.062;2023-06-04T04:51:57;102167.56;;;13.82;56.42
17785;BME280;9016;53.582;10.062;2023-06-04T04:54:25;102172.28;;;13.77;56.78
17785;BME280;9016;53.582;10.062;2023-06-04T04:56:54;102173.75;;;13.65;57.69
17785;BME280;9016;53.582;10.062;2023-06-04T04:59:40;102164.84;;;13.65;58.40
17785;BME280;9016;53.582;10.062;2023-06-04T05:02:08;102163.47;;;13.75;57.94
17785;BME280;9016;53.582;10.062;2023-06-04T05:04:36;102170.50;;;13.77;58.50
17785;BME280;9016;53.582;10.062;2023-06-04T05:07:04;102162.69;;;13.90;58.19
17785;BME280;9016;53.582;10.062;2023-06-04T05:09:32;102158.91;;;13.94;58.33
17785;BME280;9016;53.582;10.062;2023-06-04T05:12:01;102163.94;;;14.00;58.27
17785;BME280;9016;53.582;10.062;2023-06-04T05:14:29;102167.19;;;14.07;58.61
17785;BME280;9016;53.582;10.062;2023-06-04T05:16:59;102169.63;;;13.94;59.76
17785;BME280;9016;53.582;10.062;2023-06-04T05:19:27;102159.91;;;14.09;59.73
17785;BME280;9016;53.582;10.062;2023-06-04T05:21:55;102162.22;;;14.16;59.67
17785;BME280;9016;53.582;10.062;2023-06-04T05:24:23;102162.28;;;14.15;60.38
17785;BME280;9016;53.582;10.062;2023-06-04T05:26:51;102166.84;;;14.30;60.33
17785;BME280;9016;53.582;10.062;2023-06-04T05:29:19;102161.97;;;14.38;60.11
17785;BME280;9016;53.582;10.062;2023-06-04T05:31:47;102172.88;;;14.50;60.42
17785;BME280;9016;53.582;10.062;2023-06-04T05:34:17;102169.72;;;14.59;60.28
17785;BME280;9016;53.582;10.062;2023-06-04T05:36:45;102180.84;;;14.52;60.81
17785;BME280;9016;53.582;10.062;2023-06-04T05:39:13;102171.09;;;14.66;61.04
17785;BME280;9016;53.582;10.062;2023-06-04T05:41:42;102174.44;;;14.87;60.41
17785;BME280;9016;53.582;10.062;2023-06-04T05:44:10;102170.81;;;15.04;60.14
17785;BME280;9016;53.582;10.062;2023-06-04T05:46:38;102172.72;;;15.02;60.62
17785;BME280;9016;53.582;10.062;2023-06-04T05:49:07;102173.16;;;15.10;60.45
17785;BME280;9016;53.582;10.062;2023-06-04T05:51:36;102171.72;;;15.20;60.10
17785;BME280;9016;53.582;10.062;2023-06-04T05:54:04;102175.16;;;15.37;59.12
17785;BME280;9016;53.582;10.062;2023-06-04T05:56:33;102172.50;;;15.53;59.16
17785;BME280;9016;53.582;10.062;2023-06-04T05:59:01;102168.38;;;15.61;58.92
17785;BME280;9016;53.582;10.062;2023-06-04T06:01:29;102170.06;;;15.48;60.01
17785;BME280;9016;53.582;10.062;2023-06-04T06:03:57;102165.34;;;15.67;58.83
17785;BME280;9016;53.582;10.062;2023-06-04T06:06:25;102172.34;;;15.70;58.84
17785;BME280;9016;53.582;10.062;2023-06-04T06:08:56;102171.88;;;15.93;58.02
17785;BME280;9016;53.582;10.062;2023-06-04T06:11:25;102174.00;;;16.02;57.71
17785;BME280;9016;53.582;10.062;2023-06-04T06:13:54;102181.09;;;16.03;57.36
17785;BME280;9016;53.582;10.062;2023-06-04T06:16:22;102180.59;;;16.26;56.97
17785;BME280;9016;53.582;10.062;2023-06-04T06:18:50;102186.44;;;16.33;56.04
17785;BME280;9016;53.582;10.062;2023-06-04T06:21:19;102185.34;;;16.51;55.99
17785;BME280;9016;53.582;10.062;2023-06-04T06:23:47;102187.50;;;17.69;53.14
17785;BME280;9016;53.582;10.062;2023-06-04T06:26:16;102180.69;;;19.76;48.20
17785;BME280;9016;53.582;10.062;2023-06-04T06:28:46;102179.59;;;21.68;43.72
17785;BME280;9016;53.582;10.062;2023-06-04T06:31:15;102174.59;;;23.17;40.12
17785;BME280;9016;53.582;10.062;2023-06-04T06:33:43;102163.69;;;23.95;38.17
17785;BME280;9016;53.582;10.062;2023-06-04T06:36:12;102165.06;;;24.57;35.86
17785;BME280;9016;53.582;10.062;2023-06-04T06:38:40;102178.75;;;24.28;35.07
17785;BME280;9016;53.582;10.062;2023-06-04T06:41:08;102177.97;;;25.28;34.20
17785;BME280;9016;53.582;10.062;2023-06-04T06:43:37;102177.94;;;26.17;32.72
17785;BME280;9016;53.582;10.062;2023-06-04T06:46:05;102173.81;;;26.65;32.39
17785;BME280;9016;53.582;10.062;2023-06-04T06:48:34;102179.81;;;26.94;30.31
17785;BME280;9016;53.582;10.062;2023-06-04T06:51:03;102170.38;;;27.30;30.28
17785;BME280;9016;53.582;10.062;2023-06-04T06:53:31;102174.97;;;27.63;30.02
17785;BME280;9016;53.582;10.062;2023-06-04T06:55:59;102175.88;;;28.44;29.47
17785;BME280;9016;53.582;10.062;2023-06-04T06:58:27;102174.31;;;28.33;27.24
17785;BME280;9016;53.582;10.062;2023-06-04T07:00:56;102174.59;;;28.87;26.78
17785;BME280;9016;53.582;10.062;2023-06-04T07:03:25;102179.75;;;29.37;26.01
17785;BME280;9016;53.582;10.062;2023-06-04T07:05:53;102181.28;;;28.84;26.26
17785;BME280;9016;53.582;10.062;2023-06-04T07:08:21;102185.88;;;29.39;26.09
17785;BME280;9016;53.582;10.062;2023-06-04T07:10:49;102184.91;;;29.32;24.56
17785;BME280;9016;53.582;10.062;2023-06-04T07:13:17;102182.56;;;27.93;26.63
17785;BME280;9016;53.582;10.062;2023-06-04T07:15:45;102184.97;;;28.28;26.91
17785;BME280;9016;53.582;10.062;2023-06-04T07:18:15;102182.44;;;28.98;25.80
17785;BME280;9016;53.582;10.062;2023-06-04T07:20:44;102187.53;;;28.46;25.97
17785;BME280;9016;53.582;10.062;2023-06-04T07:23:11;102180.53;;;28.03;26.23
17785;BME280;9016;53.582;10.062;2023-06-04T07:25:40;102178.13;;;28.41;26.60
17785;BME280;9016;53.582;10.062;2023-06-04T07:28:08;102189.78;;;29.21;25.40
17785;BME280;9016;53.582;10.062;2023-06-04T07:30:35;102179.00;;;30.41;24.28
17785;BME280;9016;53.582;10.062;2023-06-04T07:33:05;102174.59;;;31.13;23.30
17785;BME280;9016;53.582;10.062;2023-06-04T07:35:35;102173.91;;;31.76;22.38
17785;BME280;9016;53.582;10.062;2023-06-04T07:38:03;102174.13;;;31.74;22.28
17785;BME280;9016;53.582;10.062;2023-06-04T07:40:31;102175.31;;;31.51;22.50
17785;BME280;9016;53.582;10.062;2023-06-04T07:42:59;102174.75;;;31.91;21.96
17785;BME280;9016;53.582;10.062;2023-06-04T07:45:28;102173.88;;;31.90;22.08
17785;BME280;9016;53.582;10.062;2023-06-04T07:48:01;102170.97;;;31.27;22.36
17785;BME280;9016;53.582;10.062;2023-06-04T07:50:29;102175.69;;;31.83;21.95
17785;BME280;9016;53.582;10.062;2023-06-04T07:53:03;102176.09;;;30.57;23.36
17785;BME280;9016;53.582;10.062;2023-06-04T07:55:31;102173.66;;;30.02;24.15
17785;BME280;9016;53.582;10.062;2023-06-04T07:58:00;102166.88;;;30.50;23.63
17785;BME280;9016;53.582;10.062;2023-06-04T08:00:31;102169.94;;;31.99;23.32
17785;BME280;9016;53.582;10.062;2023-06-04T08:02:59;102166.28;;;31.57;22.98
17785;BME280;9016;53.582;10.062;2023-06-04T08:05:27;102166.75;;;32.24;21.96
17785;BME280;9016;53.582;10.062;2023-06-04T08:07:55;102165.09;;;31.45;22.55
17785;BME280;9016;53.582;10.062;2023-06-04T08:10:25;102165.34;;;30.62;23.58
17785;BME280;9016;53.582;10.062;2023-06-04T08:12:53;102169.84;;;30.78;22.31
17785;BME280;9016;53.582;10.062;2023-06-04T08:15:21;102177.13;;;32.22;22.64
17785;BME280;9016;53.582;10.062;2023-06-04T08:17:49;102170.16;;;33.09;21.28
17785;BME280;9016;53.582;10.062;2023-06-04T08:20:17;102166.38;;;33.70;20.76
17785;BME280;9016;53.582;10.062;2023-06-04T08:22:45;102171.75;;;34.37;20.45
17785;BME280;9016;53.582;10.062;2023-06-04T08:25:13;102174.53;;;34.24;19.97
17785;BME280;9016;53.582;10.062;2023-06-04T08:27:43;102172.97;;;33.75;20.36
17785;BME280;9016;53.582;10.062;2023-06-04T08:30:11;102171.47;;;33.73;19.55
17785;BME280;9016;53.582;10.062;2023-06-04T08:32:39;102178.09;;;33.85;19.64
17785;BME280;9016;53.582;10.062;2023-06-04T08:35:08;102172.81;;;33.96;19.37
17785;BME280;9016;53.582;10.062;2023-06-04T08:37:36;102181.53;;;33.93;19.54
17785;BME280;9016;53.582;10.062;2023-06-04T08:40:06;102175.41;;;34.18;19.27
17785;BME280;9016;53.582;10.062;2023-06-04T08:42:40;102172.63;;;34.63;18.96
17785;BME280;9016;53.582;10.062;2023-06-04T08:45:12;102180.94;;;34.05;18.53
17785;BME280;9016;53.582;10.062;2023-06-04T08:47:43;102171.19;;;33.48;19.11
17785;BME280;9016;53.582;10.062;2023-06-04T08:50:12;102176.25;;;34.05;19.51
17785;BME280;9016;53.582;10.062;2023-06-04T08:52:43;102169.22;;;34.16;18.68
17785;BME280;9016;53.582;10.062;2023-06-04T08:55:11;102167.13;;;34.57;18.54
17785;BME280;9016;53.582;10.062;2023-06-04T08:57:41;102173.69;;;34.43;17.58
17785;BME280;9016;53.582;10.062;2023-06-04T09:00:11;102170.66;;;34.97;17.45
17785;BME280;9016;53.582;10.062;2023-06-04T09:02:40;102181.56;;;34.72;17.83
17785;BME280;9016;53.582;10.062;2023-06-04T09:05:08;102177.66;;;35.12;17.87
17785;BME280;9016;53.582;10.062;2023-06-04T09:07:39;102177.91;;;35.55;17.26
17785;BME280;9016;53.582;10.062;2023-06-04T09:10:09;102176.34;;;35.15;16.82
17785;BME280;9016;53.582;10.062;2023-06-04T09:12:42;102175.31;;;35.09;16.93
17785;BME280;9016;53.582;10.062;2023-06-04T09:15:12;102177.66;;;35.06;16.62
17785;BME280;9016;53.582;10.062;2023-06-04T09:17:40;102181.53;;;35.55;17.37
17785;BME280;9016;53.582;10.062;2023-06-04T09:20:18;102186.81;;;35.19;16.75
17785;BME280;9016;53.582;10.062;2023-06-04T09:22:46;102188.22;;;34.51;17.58
17785;BME280;9016;53.582;10.062;2023-06-04T09:25:20;102184.66;;;35.15;16.78
17785;BME280;9016;53.582;10.062;2023-06-04T09:27:48;102185.03;;;35.31;17.13
17785;BME280;9016;53.582;10.062;2023-06-04T09:30:18;102179.31;;;35.20;16.88
17785;BME280;9016;53.582;10.062;2023-06-04T09:32:46;102186.69;;;34.75;17.09
17785;BME280;9016;53.582;10.062;2023-06-04T09:35:15;102187.72;;;34.80;17.79
17785;BME280;9016;53.582;10.062;2023-06-04T09:37:54;102188.09;;;33.86;17.70
17785;BME280;9016;53.582;10.062;2023-06-04T09:40:23;102189.13;;;33.18;18.06
17785;BME280;9016;53.582;10.062;2023-06-04T09:42:52;102191.97;;;32.69;18.82
17785;BME280;9016;53.582;10.062;2023-06-04T09:45:30;102188.38;;;32.20;19.07
17785;BME280;9016;53.582;10.062;2023-06-04T09:47:59;102191.13;;;31.99;19.13
17785;BME280;9016;53.582;10.062;2023-06-04T09:50:31;102182.66;;;31.44;19.10
17785;BME280;9016;53.582;10.062;2023-06-04T09:53:00;102183.44;;;30.94;20.35
17785;BME280;9016;53.582;10.062;2023-06-04T09:55:29;102180.72;;;30.71;20.80
17785;BME280;9016;53.582;10.062;2023-06-04T09:57:58;102171.13;;;30.15;20.53
17785;BME280;9016;53.582;10.062;2023-06-04T10:00:26;102175.25;;;29.97;21.15
17785;BME280;9016;53.582;10.062;2023-06-04T10:03:01;102175.25;;;29.97;21.92
17785;BME280;9016;53.582;10.062;2023-06-04T10:05:31;102184.09;;;29.54;21.33
17785;BME280;9016;53.582;10.062;2023-06-04T10:08:03;102183.19;;;29.31;21.26
17785;BME280;9016;53.582;10.062;2023-06-04T10:10:34;102191.84;;;29.19;21.47
17785;BME280;9016;53.582;10.062;2023-06-04T10:13:05;102175.94;;;28.91;22.23
17785;BME280;9016;53.582;10.062;2023-06-04T10:15:35;102178.44;;;28.70;22.21
17785;BME280;9016;53.582;10.062;2023-06-04T10:18:05;102172.66;;;28.16;23.13
17785;BME280;9016;53.582;10.062;2023-06-04T10:20:33;102167.00;;;28.02;23.07
17785;BME280;9016;53.582;10.062;2023-06-04T10:23:02;102173.13;;;28.28;22.95
17785;BME280;9016;53.582;10.062;2023-06-04T10:25:31;102169.69;;;28.26;22.80
17785;BME280;9016;53.582;10.062;2023-06-04T10:28:00;102174.69;;;28.39;22.53
17785;BME280;9016;53.582;10.062;2023-06-04T10:30:29;102176.91;;;28.35;22.84
17785;BME280;9016;53.582;10.062;2023-06-04T10:32:58;102168.69;;;28.19;23.15
17785;BME280;9016;53.582;10.062;2023-06-04T10:35:31;102176.75;;;27.96;23.52
17785;BME280;9016;53.582;10.062;2023-06-04T10:38:07;102186.00;;;28.27;22.72
17785;BME280;9016;53.582;10.062;2023-06-04T10:40:35;102177.59;;;28.21;22.35
17785;BME280;9016;53.582;10.062;2023-06-04T10:43:07;102176.97;;;27.45;22.62
17785;BME280;9016;53.582;10.062;2023-06-04T10:45:36;102169.78;;;27.10;23.53
17785;BME280;9016;53.582;10.062;2023-06-04T10:48:06;102165.81;;;27.38;23.84
17785;BME280;9016;53.582;10.062;2023-06-04T10:50:48;102170.16;;;27.65;24.02
17785;BME280;9016;53.582;10.062;2023-06-04T10:53:17;102169.16;;;27.66;23.51
17785;BME280;9016;53.582;10.062;2023-06-04T10:55:46;102173.06;;;27.56;23.89
17785;BME280;9016;53.582;10.062;2023-06-04T10:58:15;102169.66;;;27.70;23.88
17785;BME280;9016;53.582;10.062;2023-06-04T11:00:47;102181.59;;;27.45;24.01
17785;BME280;9016;53.582;10.062;2023-06-04T11:03:16;102170.66;;;27.11;23.46
17785;BME280;9016;53.582;10.062;2023-06-04T11:05:47;102180.50;;;25.84;24.67
17785;BME280;9016;53.582;10.062;2023-06-04T11:08:26;102176.81;;;26.10;24.59
17785;BME280;9016;53.582;10.062;2023-06-04T11:10:55;102183.16;;;26.28;25.27
17785;BME280;9016;53.582;10.062;2023-06-04T11:13:23;102176.81;;;26.28;25.46
17785;BME280;9016;53.582;10.062;2023-06-04T11:15:53;102168.91;;;26.25;25.21
17785;BME280;9016;53.582;10.062;2023-06-04T11:18:22;102176.88;;;25.83;25.93
17785;BME280;9016;53.582;10.062;2023-06-04T11:20:59;102164.41;;;26.16;26.51
17785;BME280;9016;53.582;10.062;2023-06-04T11:23:28;102175.00;;;26.01;26.16
17785;BME280;9016;53.582;10.062;2023-06-04T11:25:56;102175.16;;;26.00;26.56
17785;BME280;9016;53.582;10.062;2023-06-04T11:28:25;102169.59;;;25.39;26.98
17785;BME280;9016;53.582;10.062;2023-06-04T11:30:57;102167.50;;;24.96;26.94
17785;BME280;9016;53.582;10.062;2023-06-04T11:33:26;102164.38;;;24.91;27.45
17785;BME280;9016;53.582;10.062;2023-06-04T11:35:55;102157.59;;;25.22;27.35
17785;BME280;9016;53.582;10.062;2023-06-04T11:38:23;102165.59;;;25.33;27.29
17785;BME280;9016;53.582;10.062;2023-06-04T11:40:56;102158.97;;;25.36;27.61
17785;BME280;9016;53.582;10.062;2023-06-04T11:43:24;102156.25;;;25.36;27.03
17785;BME280;9016;53.582;10.062;2023-06-04T11:45:53;102148.00;;;25.18;27.34
17785;BME280;9016;53.582;10.062;2023-06-04T11:48:21;102154.53;;;24.81;27.63
17785;BME280;9016;53.582;10.062;2023-06-04T11:50:50;102151.81;;;24.81;27.91
17785;BME280;9016;53.582;10.062;2023-06-04T11:53:19;102152.50;;;25.10;27.91
17785;BME280;9016;53.582;10.062;2023-06-04T11:55:47;102147.78;;;25.29;27.97
17785;BME280;9016;53.582;10.062;2023-06-04T11:58:17;102155.09;;;25.29;27.67
17785;BME280;9016;53.582;10.062;2023-06-04T12:00:46;102147.03;;;25.37;27.48
17785;BME280;9016;53.582;10.062;2023-06-04T12:03:14;102153.44;;;25.45;27.56
17785;BME280;9016;53.582;10.062;2023-06-04T12:05:42;102152.09;;;25.32;27.66
17785;BME280;9016;53.582;10.062;2023-06-04T12:08:10;102156.50;;;24.88;28.01
17785;BME280;9016;53.582;10.062;2023-06-04T12:10:41;102153.63;;;24.90;28.42
17785;BME280;9016;53.582;10.062;2023-06-04T12:13:10;102156.78;;;24.85;28.47
17785;BME280;9016;53.582;10.062;2023-06-04T12:15:38;102151.38;;;24.76;28.59
17785;BME280;9016;53.582;10.062;2023-06-04T12:18:07;102150.94;;;24.80;28.29
17785;BME280;9016;53.582;10.062;2023-06-04T12:20:38;102147.28;;;24.52;28.57
17785;BME280;9016;53.582;10.062;2023-06-04T12:23:06;102153.16;;;24.48;28.78
17785;BME280;9016;53.582;10.062;2023-06-04T12:25:35;102148.84;;;24.55;28.42
17785;BME280;9016;53.582;10.062;2023-06-04T12:28:06;102148.56;;;24.48;28.60
17785;BME280;9016;53.582;10.062;2023-06-04T12:30:44;102138.34;;;24.60;29.09
17785;BME280;9016;53.582;10.062;2023-06-04T12:33:12;102144.53;;;24.72;28.52
17785;BME280;9016;53.582;10.062;2023-06-04T12:35:40;102135.50;;;24.52;28.46
17785;BME280;9016;53.582;10.062;2023-06-04T12:38:08;102141.34;;;24.57;29.19
17785;BME280;9016;53.582;10.062;2023-06-04T12:40:37;102130.50;;;24.47;28.59
17785;BME280;9016;53.582;10.062;2023-06-04T12:43:06;102133.50;;;24.54;28.53
17785;BME280;9016;53.582;10.062;2023-06-04T12:45:34;102139.16;;;24.24;28.54
17785;BME280;9016;53.582;10.062;2023-06-04T12:48:02;102133.44;;;24.17;28.66
17785;BME280;9016;53.582;10.062;2023-06-04T12:50:31;102137.03;;;23.99;28.74
17785;BME280;9016;53.582;10.062;2023-06-04T12:52:59;102133.03;;;23.74;29.39
17785;BME280;9016;53.582;10.062;2023-06-04T12:55:27;102128.28;;;23.95;28.98
17785;BME280;9016;53.582;10.062;2023-06-04T12:57:55;102130.16;;;24.23;28.74
17785;BME280;9016;53.582;10.062;2023-06-04T13:00:24;102135.91;;;24.11;28.46